createdAt,value
2023-07-21T00:02:16.051Z,17.80
2023-07-21T00:04:42.684Z,17.60
2023-07-21T00:07:09.449Z,17.60
2023-07-21T00:09:36.056Z,17.50
2023-07-21T00:12:03.064Z,17.50
2023-07-21T00:14:29.924Z,17.30
2023-07-21T00:16:56.699Z,17.30
2023-07-21T00:19:23.310Z,17.40
2023-07-21T00:21:50.798Z,17.30
2023-07-21T00:24:19.822Z,17.30
2023-07-21T00:26:47.480Z,17.20
2023-07-21T00:29:14.193Z,17.10
2023-07-21T00:31:43.924Z,17.20
2023-07-21T00:34:10.828Z,17.10
2023-07-21T00:36:37.488Z,16.90
2023-07-21T00:39:04.523Z,16.80
2023-07-21T00:41:31.215Z,16.80
2023-07-21T00:43:57.848Z,16.90
2023-07-21T00:46:25.704Z,16.80
2023-07-21T00:48:52.832Z,16.90
2023-07-21T00:51:20.543Z,16.70
2023-07-21T00:53:48.241Z,16.70
2023-07-21T00:56:14.870Z,16.70
2023-07-21T00:58:41.492Z,16.70
2023-07-21T01:01:08.837Z,16.60
2023-07-21T01:03:36.635Z,16.50
2023-07-21T01:06:04.559Z,16.50
2023-07-21T01:08:31.520Z,16.30
2023-07-21T01:10:58.899Z,16.20
2023-07-21T01:13:27.549Z,16.30
2023-07-21T01:15:56.625Z,16.30
2023-07-21T01:18:25.674Z,16.30
2023-07-21T01:20:54.206Z,16.30
2023-07-21T01:23:20.785Z,16.30
2023-07-21T01:25:48.388Z,16.20
2023-07-21T01:28:17.491Z,16.10
2023-07-21T01:30:47.004Z,16.10
2023-07-21T01:33:15.302Z,16.10
2023-07-21T01:35:43.181Z,16.10
2023-07-21T01:38:11.439Z,16.10
2023-07-21T01:40:40.231Z,16.10
2023-07-21T01:43:08.507Z,16.00
2023-07-21T01:45:35.229Z,15.90
2023-07-21T01:48:02.004Z,15.90
2023-07-21T01:50:30.201Z,15.80
2023-07-21T01:52:59.288Z,15.80
2023-07-21T01:55:36.878Z,15.80
2023-07-21T01:58:08.861Z,15.70
2023-07-21T02:00:50.747Z,15.70
2023-07-21T02:03:19.774Z,15.80
2023-07-21T02:05:47.906Z,15.80
2023-07-21T02:08:14.994Z,15.70
2023-07-21T02:10:42.302Z,15.60
2023-07-21T02:13:10.992Z,15.50
2023-07-21T02:15:37.643Z,15.40
2023-07-21T02:18:04.484Z,15.30
2023-07-21T02:20:31.217Z,15.40
2023-07-21T02:22:57.879Z,15.40
2023-07-21T02:25:25.576Z,15.40
2023-07-21T02:27:52.224Z,15.40
2023-07-21T02:30:18.901Z,15.50
2023-07-21T02:32:45.600Z,15.50
2023-07-21T02:35:12.520Z,15.50
2023-07-21T02:37:39.172Z,15.50
2023-07-21T02:40:07.357Z,15.40
2023-07-21T02:42:35.443Z,15.30
2023-07-21T02:45:02.422Z,15.20
2023-07-21T02:47:29.141Z,15.20
2023-07-21T02:49:55.833Z,15.20
2023-07-21T02:52:22.516Z,15.30
2023-07-21T02:54:49.218Z,15.30
2023-07-21T02:57:15.917Z,15.30
2023-07-21T02:59:42.731Z,15.10
2023-07-21T03:02:09.766Z,15.20
2023-07-21T03:04:37.559Z,15.20
2023-07-21T03:07:04.693Z,15.20
2023-07-21T03:09:32.148Z,15.20
2023-07-21T03:11:58.769Z,15.20
2023-07-21T03:14:25.420Z,15.30
2023-07-21T03:16:52.286Z,15.20
2023-07-21T03:19:19.108Z,15.20
2023-07-21T03:21:45.834Z,15.10
2023-07-21T03:24:12.692Z,15.10
2023-07-21T03:26:39.330Z,15.10
2023-07-21T03:29:05.925Z,15.10
2023-07-21T03:31:33.908Z,15.10
2023-07-21T03:34:00.778Z,15.00
2023-07-21T03:36:27.549Z,14.80
2023-07-21T03:38:54.467Z,14.90
2023-07-21T03:41:22.077Z,14.90
2023-07-21T03:43:49.496Z,14.80
2023-07-21T03:46:16.173Z,15.00
2023-07-21T03:48:44.147Z,14.90
2023-07-21T03:51:11.272Z,14.80
2023-07-21T03:53:38.044Z,14.80
2023-07-21T03:56:06.595Z,14.90
2023-07-21T03:58:33.623Z,14.80
2023-07-21T04:01:00.857Z,14.70
2023-07-21T04:03:27.787Z,14.70
2023-07-21T04:05:54.697Z,14.80
2023-07-21T04:08:21.297Z,14.90
2023-07-21T04:10:47.920Z,15.00
2023-07-21T04:13:14.536Z,15.00
2023-07-21T04:15:41.199Z,14.80
2023-07-21T04:18:07.899Z,14.80
2023-07-21T04:20:34.511Z,14.90
2023-07-21T04:23:01.393Z,14.90
2023-07-21T04:25:28.043Z,15.00
2023-07-21T04:27:56.079Z,15.10
2023-07-21T04:30:23.935Z,15.20
2023-07-21T04:32:51.338Z,15.30
2023-07-21T04:35:18.462Z,15.40
2023-07-21T04:37:45.370Z,15.40
2023-07-21T04:40:12.773Z,15.40
2023-07-21T04:42:40.137Z,15.40
2023-07-21T04:45:12.820Z,15.40
2023-07-21T04:47:41.575Z,15.40
2023-07-21T04:50:09.466Z,15.50
2023-07-21T04:52:38.010Z,15.60
2023-07-21T04:55:06.647Z,15.70
2023-07-21T04:57:33.839Z,15.80
2023-07-21T05:00:00.536Z,16.10
2023-07-21T05:02:29.605Z,16.10
2023-07-21T05:04:58.584Z,16.20
2023-07-21T05:07:25.561Z,16.20
2023-07-21T05:09:52.611Z,16.20
2023-07-21T05:12:20.031Z,16.20
2023-07-21T05:14:46.641Z,16.20
2023-07-21T05:17:13.281Z,16.20
2023-07-21T05:19:40.000Z,16.20
2023-07-21T05:22:06.764Z,16.20
2023-07-21T05:24:33.497Z,16.30
2023-07-21T05:27:00.140Z,16.30
2023-07-21T05:29:26.778Z,16.40
2023-07-21T05:31:53.405Z,16.40
2023-07-21T05:34:22.224Z,16.60
2023-07-21T05:36:49.332Z,16.60
2023-07-21T05:39:16.841Z,16.70
2023-07-21T05:41:43.540Z,16.80
2023-07-21T05:44:10.276Z,16.80
2023-07-21T05:46:40.436Z,16.80
2023-07-21T05:49:07.437Z,16.90
2023-07-21T05:51:34.294Z,16.90
2023-07-21T05:54:00.989Z,16.90
2023-07-21T05:56:28.095Z,16.90
2023-07-21T05:58:55.060Z,17.00
2023-07-21T06:01:24.254Z,17.00
2023-07-21T06:03:51.013Z,17.00
2023-07-21T06:06:17.735Z,17.10
2023-07-21T06:08:44.873Z,17.00
2023-07-21T06:11:11.624Z,17.00
2023-07-21T06:13:38.281Z,17.00
2023-07-21T06:16:05.043Z,17.10
2023-07-21T06:18:33.022Z,17.20
2023-07-21T06:21:01.025Z,17.20
2023-07-21T06:23:27.676Z,17.20
2023-07-21T06:25:54.911Z,17.30
2023-07-21T06:28:22.869Z,17.40
2023-07-21T06:30:49.913Z,17.50
2023-07-21T06:33:16.933Z,17.50
2023-07-21T06:35:43.563Z,17.60
2023-07-21T06:38:10.145Z,17.60
2023-07-21T06:40:36.748Z,17.60
2023-07-21T06:43:03.552Z,17.50
2023-07-21T06:45:30.498Z,17.60
2023-07-21T06:47:57.181Z,17.60
2023-07-21T06:50:23.823Z,17.60
2023-07-21T06:52:52.583Z,17.70
2023-07-21T06:55:19.534Z,17.80
2023-07-21T06:57:46.363Z,17.90
2023-07-21T07:00:15.692Z,17.90
2023-07-21T07:02:48.326Z,18.00
2023-07-21T07:05:15.228Z,18.20
2023-07-21T07:07:41.926Z,18.30
2023-07-21T07:10:09.693Z,18.40
2023-07-21T07:12:36.361Z,18.30
2023-07-21T07:15:03.084Z,18.50
2023-07-21T07:17:29.755Z,18.80
2023-07-21T07:19:57.445Z,18.80
2023-07-21T07:22:24.130Z,18.80
2023-07-21T07:24:50.762Z,18.90
2023-07-21T07:27:17.528Z,19.00
2023-07-21T07:29:44.189Z,19.10
2023-07-21T07:32:10.886Z,19.00
2023-07-21T07:34:37.856Z,18.90
2023-07-21T07:37:04.695Z,19.10
2023-07-21T07:39:31.636Z,19.30
2023-07-21T07:41:58.322Z,19.40
2023-07-21T07:44:24.950Z,19.30
2023-07-21T07:46:56.222Z,19.50
2023-07-21T07:49:23.212Z,19.70
2023-07-21T07:51:52.614Z,19.80
2023-07-21T07:54:19.294Z,19.60
2023-07-21T07:56:48.289Z,19.60
2023-07-21T07:59:14.901Z,19.80
2023-07-21T08:01:41.562Z,19.90
2023-07-21T08:04:08.374Z,19.90
2023-07-21T08:06:35.136Z,19.80
2023-07-21T08:09:04.061Z,20.00
2023-07-21T08:11:30.730Z,20.00
2023-07-21T08:13:57.381Z,20.30
2023-07-21T08:16:24.166Z,20.40
2023-07-21T08:18:51.104Z,20.50
2023-07-21T08:21:25.210Z,20.60
2023-07-21T08:23:52.522Z,20.70
2023-07-21T08:26:19.648Z,21.00
2023-07-21T08:28:46.279Z,21.30
2023-07-21T08:31:13.223Z,21.40
2023-07-21T08:33:40.772Z,21.50
2023-07-21T08:36:07.444Z,21.60
2023-07-21T08:38:37.007Z,21.60
2023-07-21T08:41:04.975Z,21.70
2023-07-21T08:43:32.076Z,21.70
2023-07-21T08:46:02.189Z,21.90
2023-07-21T08:48:29.722Z,21.90
2023-07-21T08:50:57.220Z,21.90
2023-07-21T08:53:26.014Z,22.30
2023-07-21T08:56:00.229Z,22.30
2023-07-21T08:58:28.023Z,22.30
2023-07-21T09:00:56.045Z,22.40
2023-07-21T09:03:33.964Z,22.50
2023-07-21T09:06:02.344Z,22.80
2023-07-21T09:08:33.739Z,22.80
2023-07-21T09:11:04.716Z,22.30
2023-07-21T09:13:33.180Z,22.30
2023-07-21T09:16:02.829Z,22.60
2023-07-21T09:18:50.057Z,22.70
2023-07-21T09:21:24.378Z,23.00
2023-07-21T09:23:52.698Z,22.80
2023-07-21T09:26:24.155Z,22.40
2023-07-21T09:28:51.396Z,22.30
2023-07-21T09:31:18.070Z,22.70
2023-07-21T09:33:47.570Z,23.10
2023-07-21T09:36:16.727Z,22.80
2023-07-21T09:38:44.717Z,22.40
2023-07-21T09:41:13.661Z,22.20
2023-07-21T09:43:41.618Z,22.20
2023-07-21T09:46:17.764Z,22.10
2023-07-21T09:48:45.925Z,21.90
2023-07-21T09:51:12.954Z,22.00
2023-07-21T09:53:42.607Z,22.20
2023-07-21T09:56:10.912Z,22.40
2023-07-21T09:58:52.040Z,23.40
2023-07-21T10:01:19.811Z,24.30
2023-07-21T10:03:47.667Z,24.50
2023-07-21T10:06:16.237Z,24.40
2023-07-21T10:08:43.564Z,23.90
2023-07-21T10:11:10.635Z,23.40
2023-07-21T10:13:48.640Z,23.40
2023-07-21T10:16:16.154Z,24.10
2023-07-21T10:19:02.202Z,24.40
2023-07-21T10:21:35.295Z,24.20
2023-07-21T10:24:03.904Z,24.30
2023-07-21T10:26:31.422Z,24.60
2023-07-21T10:29:16.429Z,25.10
2023-07-21T10:31:59.109Z,25.20
2023-07-21T10:34:33.390Z,25.50
2023-07-21T10:37:04.333Z,25.40
2023-07-21T10:39:33.547Z,25.40
2023-07-21T10:42:02.253Z,25.30
2023-07-21T10:44:40.420Z,25.10
2023-07-21T10:47:13.674Z,24.60
2023-07-21T10:49:40.553Z,24.40
2023-07-21T10:52:07.645Z,25.00
2023-07-21T10:54:35.700Z,25.50
2023-07-21T10:57:03.102Z,25.60
2023-07-21T10:59:34.216Z,25.50
2023-07-21T11:02:01.753Z,25.40
2023-07-21T11:04:28.576Z,25.00
2023-07-21T11:06:57.700Z,24.60
2023-07-21T11:09:25.091Z,24.30
2023-07-21T11:11:53.806Z,24.30
2023-07-21T11:14:22.243Z,24.40
2023-07-21T11:16:56.358Z,24.50
2023-07-21T11:19:25.309Z,24.50
2023-07-21T11:21:53.866Z,25.00
2023-07-21T11:24:27.120Z,24.80
2023-07-21T11:27:10.059Z,24.30
2023-07-21T11:29:42.411Z,24.00
2023-07-21T11:32:25.454Z,23.80
2023-07-21T11:35:00.014Z,24.30
2023-07-21T11:37:43.854Z,24.40
2023-07-21T11:40:17.096Z,24.10
2023-07-21T11:42:50.630Z,24.00
2023-07-21T11:45:36.959Z,23.70
2023-07-21T11:48:15.203Z,23.60
2023-07-21T11:50:55.756Z,23.80
2023-07-21T11:53:24.479Z,23.60
2023-07-21T11:55:51.687Z,23.50
2023-07-21T11:58:18.446Z,23.40
2023-07-21T12:00:45.257Z,23.00
2023-07-21T12:03:12.236Z,23.10
2023-07-21T12:05:39.573Z,23.00
2023-07-21T12:08:07.285Z,23.00
2023-07-21T12:10:34.159Z,23.30
2023-07-21T12:13:00.806Z,22.80
2023-07-21T12:15:30.570Z,22.80
2023-07-21T12:17:57.420Z,22.80
2023-07-21T12:20:24.232Z,22.80
2023-07-21T12:22:50.898Z,23.60
2023-07-21T12:25:17.990Z,24.60
2023-07-21T12:27:45.283Z,25.40
2023-07-21T12:30:12.259Z,25.70
2023-07-21T12:32:39.344Z,25.20
2023-07-21T12:35:06.847Z,24.30
2023-07-21T12:37:33.908Z,23.80
2023-07-21T12:40:01.291Z,23.60
2023-07-21T12:42:30.063Z,23.30
2023-07-21T12:44:56.675Z,23.10
2023-07-21T12:47:23.468Z,23.20
2023-07-21T12:49:50.216Z,23.30
2023-07-21T12:52:16.900Z,23.30
2023-07-21T12:54:45.982Z,23.90
2023-07-21T12:57:13.816Z,24.50
2023-07-21T12:59:40.487Z,24.40
2023-07-21T13:02:07.675Z,23.80
2023-07-21T13:04:34.682Z,25.30
2023-07-21T13:07:08.590Z,25.70
2023-07-21T13:09:35.606Z,25.80
2023-07-21T13:12:02.235Z,24.90
2023-07-21T13:14:29.169Z,24.30
2023-07-21T13:16:55.934Z,24.20
2023-07-21T13:19:22.796Z,23.80
2023-07-21T13:21:49.432Z,23.60
2023-07-21T13:24:16.095Z,23.40
2023-07-21T13:26:42.854Z,23.30
2023-07-21T13:29:11.568Z,23.10
2023-07-21T13:31:38.629Z,23.00
2023-07-21T13:34:05.310Z,22.60
2023-07-21T13:36:32.872Z,22.40
2023-07-21T13:38:59.503Z,22.30
2023-07-21T13:41:26.236Z,22.20
2023-07-21T13:43:52.928Z,22.00
2023-07-21T13:46:23.105Z,21.70
2023-07-21T13:48:50.215Z,21.10
2023-07-21T13:51:17.005Z,20.40
2023-07-21T13:53:43.682Z,20.10
2023-07-21T13:56:10.320Z,19.70
2023-07-21T13:58:36.948Z,19.40
2023-07-21T14:01:04.399Z,19.30
2023-07-21T14:03:31.225Z,19.00
2023-07-21T14:05:58.112Z,18.90
2023-07-21T14:08:25.574Z,18.90
2023-07-21T14:10:52.640Z,18.80
2023-07-21T14:13:19.347Z,18.80
2023-07-21T14:15:46.365Z,18.90
2023-07-21T14:18:13.747Z,19.00
2023-07-21T14:20:40.929Z,19.20
2023-07-21T14:23:08.510Z,19.30
2023-07-21T14:25:35.346Z,19.30
2023-07-21T14:28:01.996Z,19.20
2023-07-21T14:30:30.748Z,19.00
2023-07-21T14:32:57.742Z,18.90
2023-07-21T14:35:24.571Z,19.00
2023-07-21T14:37:51.477Z,18.90
2023-07-21T14:40:18.650Z,18.90
2023-07-21T14:42:45.719Z,19.00
2023-07-21T14:45:13.677Z,19.00
2023-07-21T14:47:40.529Z,19.10
2023-07-21T14:50:08.125Z,19.10
2023-07-21T14:52:35.059Z,19.10
2023-07-21T14:55:06.324Z,19.00
2023-07-21T14:57:33.226Z,19.10
2023-07-21T14:59:59.888Z,19.10
2023-07-21T15:02:26.628Z,19.10
2023-07-21T15:04:53.294Z,19.10
2023-07-21T15:07:19.933Z,19.10
2023-07-21T15:09:47.745Z,19.10
2023-07-21T15:12:14.676Z,19.00
2023-07-21T15:14:41.288Z,19.00
2023-07-21T15:17:08.064Z,19.00
2023-07-21T15:19:34.699Z,19.20
2023-07-21T15:22:01.354Z,19.40
2023-07-21T15:24:28.006Z,19.50
2023-07-21T15:26:54.735Z,19.70
2023-07-21T15:29:21.536Z,20.00
2023-07-21T15:31:52.489Z,20.20
2023-07-21T15:34:19.199Z,20.20
2023-07-21T15:36:45.881Z,20.20
2023-07-21T15:39:12.800Z,20.20
2023-07-21T15:41:39.431Z,20.00
2023-07-21T15:44:06.041Z,20.00
2023-07-21T15:46:32.705Z,20.20
2023-07-21T15:48:59.335Z,20.40
2023-07-21T15:51:26.006Z,20.50
2023-07-21T15:54:03.021Z,20.40
2023-07-21T15:56:38.112Z,20.40
2023-07-21T15:59:04.707Z,20.20
2023-07-21T16:01:32.182Z,20.20
2023-07-21T16:03:58.837Z,20.30
2023-07-21T16:06:25.493Z,20.50
2023-07-21T16:08:52.310Z,20.70
2023-07-21T16:11:19.685Z,20.50
2023-07-21T16:13:47.980Z,20.50
2023-07-21T16:16:14.686Z,20.40
2023-07-21T16:18:51.023Z,20.10
2023-07-21T16:21:18.386Z,20.20
2023-07-21T16:23:45.102Z,20.20
2023-07-21T16:26:16.308Z,20.20
2023-07-21T16:28:43.085Z,20.10
2023-07-21T16:31:09.871Z,20.10
2023-07-21T16:33:36.891Z,20.10
2023-07-21T16:36:04.698Z,20.10
2023-07-21T16:38:32.343Z,19.90
2023-07-21T16:41:04.919Z,19.90
2023-07-21T16:43:31.610Z,19.70
2023-07-21T16:45:58.441Z,19.60
2023-07-21T16:48:27.244Z,19.60
2023-07-21T16:50:54.174Z,19.50
2023-07-21T16:53:23.766Z,19.40
2023-07-21T16:55:50.760Z,19.30
2023-07-21T16:58:19.248Z,19.50
2023-07-21T17:00:46.662Z,19.60
2023-07-21T17:03:17.067Z,19.70
2023-07-21T17:05:43.713Z,19.70
2023-07-21T17:08:10.432Z,19.80
2023-07-21T17:10:37.364Z,20.00
2023-07-21T17:13:05.055Z,20.10
2023-07-21T17:15:32.196Z,20.00
2023-07-21T17:18:00.474Z,20.20
2023-07-21T17:20:27.220Z,20.10
2023-07-21T17:22:53.851Z,20.00
2023-07-21T17:25:20.607Z,19.90
2023-07-21T17:27:47.489Z,19.70
2023-07-21T17:30:14.268Z,19.70
2023-07-21T17:32:40.894Z,19.60
2023-07-21T17:35:08.603Z,19.50
2023-07-21T17:37:35.439Z,19.70
2023-07-21T17:40:02.297Z,19.80
2023-07-21T17:42:29.462Z,19.70
2023-07-21T17:44:56.049Z,19.90
2023-07-21T17:47:22.973Z,20.00
2023-07-21T17:49:49.573Z,19.90
2023-07-21T17:52:16.213Z,19.70
2023-07-21T17:54:42.844Z,19.60
2023-07-21T17:57:10.052Z,19.60
2023-07-21T17:59:36.710Z,19.60
2023-07-21T18:02:03.566Z,19.50
2023-07-21T18:04:30.210Z,19.60
2023-07-21T18:06:56.814Z,19.50
2023-07-21T18:09:25.892Z,19.50
2023-07-21T18:11:55.294Z,19.40
2023-07-21T18:14:23.024Z,19.50
2023-07-21T18:16:49.837Z,19.50
2023-07-21T18:19:16.669Z,19.50
2023-07-21T18:21:43.391Z,19.50
2023-07-21T18:24:10.174Z,19.30
2023-07-21T18:26:36.850Z,19.50
2023-07-21T18:29:03.565Z,19.40
2023-07-21T18:31:30.459Z,19.30
2023-07-21T18:33:57.363Z,19.40
2023-07-21T18:36:24.018Z,19.40
2023-07-21T18:38:51.336Z,19.40
2023-07-21T18:41:22.252Z,19.40
2023-07-21T18:43:51.411Z,19.30
2023-07-21T18:46:18.367Z,19.10
2023-07-21T18:48:45.039Z,19.10
2023-07-21T18:51:11.731Z,19.20
2023-07-21T18:53:43.038Z,18.90
2023-07-21T18:56:09.994Z,18.80
2023-07-21T18:58:36.750Z,18.70
2023-07-21T19:01:03.459Z,18.60
2023-07-21T19:03:30.176Z,18.40
2023-07-21T19:05:56.825Z,18.30
2023-07-21T19:08:23.430Z,18.30
2023-07-21T19:10:51.775Z,18.20
2023-07-21T19:13:18.540Z,18.20
2023-07-21T19:15:45.179Z,18.10
2023-07-21T19:18:11.910Z,18.10
2023-07-21T19:20:38.614Z,18.00
2023-07-21T19:23:05.241Z,18.00
2023-07-21T19:25:31.892Z,17.90
2023-07-21T19:27:58.585Z,17.70
2023-07-21T19:30:25.184Z,17.60
2023-07-21T19:32:51.790Z,17.60
2023-07-21T19:35:18.564Z,17.50
2023-07-21T19:37:45.169Z,17.40
2023-07-21T19:40:12.099Z,17.40
2023-07-21T19:42:38.782Z,17.40
2023-07-21T19:45:07.561Z,17.40
2023-07-21T19:47:34.274Z,17.50
2023-07-21T19:50:01.154Z,17.40
2023-07-21T19:52:27.823Z,17.30
2023-07-21T19:54:54.420Z,17.20
2023-07-21T19:57:22.267Z,17.20
2023-07-21T19:59:49.091Z,17.20
2023-07-21T20:02:15.882Z,17.20
2023-07-21T20:04:42.557Z,17.20
2023-07-21T20:07:09.308Z,17.20
2023-07-21T20:09:35.926Z,17.20
2023-07-21T20:12:02.563Z,17.20
2023-07-21T20:14:29.168Z,17.30
2023-07-21T20:16:55.978Z,17.20
2023-07-21T20:19:22.640Z,17.20
2023-07-21T20:21:49.565Z,17.20
2023-07-21T20:24:16.205Z,17.20
2023-07-21T20:26:43.032Z,17.20
2023-07-21T20:29:09.757Z,17.10
2023-07-21T20:31:36.400Z,17.10
2023-07-21T20:34:05.421Z,17.00
2023-07-21T20:36:32.142Z,17.00
2023-07-21T20:38:58.867Z,17.10
2023-07-21T20:41:25.497Z,17.00
2023-07-21T20:43:52.133Z,17.10
2023-07-21T20:46:18.832Z,17.00
2023-07-21T20:48:45.483Z,16.90
2023-07-21T20:51:12.124Z,16.90
2023-07-21T20:53:38.782Z,16.90
2023-07-21T20:56:05.773Z,16.80
2023-07-21T20:58:33.674Z,16.80
2023-07-21T21:01:00.435Z,16.80
2023-07-21T21:03:27.201Z,16.90
2023-07-21T21:06:00.906Z,16.70
2023-07-21T21:08:28.292Z,16.60
2023-07-21T21:10:55.050Z,16.70
2023-07-21T21:13:22.801Z,16.80
2023-07-21T21:15:49.921Z,16.70
2023-07-21T21:18:16.734Z,16.70
2023-07-21T21:20:45.790Z,16.60
2023-07-21T21:23:13.396Z,16.70
2023-07-21T21:25:40.163Z,16.60
2023-07-21T21:28:08.259Z,16.50
2023-07-21T21:30:34.917Z,16.50
2023-07-21T21:33:01.702Z,16.40
2023-07-21T21:35:28.395Z,16.40
2023-07-21T21:37:55.028Z,16.30
2023-07-21T21:40:21.644Z,16.40
2023-07-21T21:42:48.330Z,16.40
2023-07-21T21:45:14.959Z,16.40
2023-07-21T21:47:41.584Z,16.20
2023-07-21T21:50:08.494Z,16.20
2023-07-21T21:52:35.161Z,16.10
2023-07-21T21:55:01.836Z,16.00
2023-07-21T21:57:28.799Z,16.10
2023-07-21T21:59:55.480Z,16.10
2023-07-21T22:02:22.146Z,16.10
2023-07-21T22:04:49.114Z,16.10
2023-07-21T22:07:16.092Z,16.00
2023-07-21T22:09:42.733Z,16.10
2023-07-21T22:12:12.352Z,16.10
2023-07-21T22:14:54.550Z,16.10
2023-07-21T22:17:23.446Z,16.10
2023-07-21T22:20:03.564Z,16.10
2023-07-21T22:22:37.168Z,16.10
2023-07-21T22:25:04.171Z,16.20
2023-07-21T22:27:30.814Z,16.20
2023-07-21T22:29:57.462Z,16.20
2023-07-21T22:32:24.388Z,16.20
2023-07-21T22:34:51.227Z,16.10
2023-07-21T22:37:17.947Z,16.20
2023-07-21T22:39:44.566Z,16.10
2023-07-21T22:42:11.174Z,16.20
2023-07-21T22:44:37.884Z,16.10
2023-07-21T22:47:04.794Z,16.20
2023-07-21T22:49:31.450Z,16.20
2023-07-21T22:51:58.061Z,16.20
2023-07-21T22:54:24.649Z,16.30
2023-07-21T22:56:51.765Z,16.40
2023-07-21T22:59:18.413Z,16.40
2023-07-21T23:01:45.107Z,16.40
2023-07-21T23:04:11.786Z,16.40
2023-07-21T23:06:40.470Z,16.40
2023-07-21T23:09:07.120Z,16.30
2023-07-21T23:11:33.764Z,16.20
2023-07-21T23:14:00.805Z,16.30
2023-07-21T23:16:27.805Z,16.20
2023-07-21T23:18:54.629Z,16.10
2023-07-21T23:21:21.270Z,16.20
2023-07-21T23:23:47.903Z,16.20
2023-07-21T23:26:14.487Z,16.20
2023-07-21T23:28:41.197Z,16.20
2023-07-21T23:31:09.148Z,16.20
2023-07-21T23:33:35.894Z,16.10
2023-07-21T23:36:02.623Z,16.10
2023-07-21T23:38:30.176Z,16.10
2023-07-21T23:40:57.066Z,15.90
2023-07-21T23:43:25.009Z,15.90
2023-07-21T23:45:57.762Z,15.90
2023-07-21T23:48:25.969Z,15.90
2023-07-21T23:50:52.609Z,15.90
2023-07-21T23:53:19.202Z,15.90
2023-07-21T23:55:46.257Z,15.90
2023-07-21T23:58:12.928Z,15.80
